sensor_id;sensor_type;location;lat;lon;timestamp;pressure;altitude;pressure_sealevel;temperature;humidity
60611;BME280;46439;51.164;13.572;2023-01-28T00:00:00;100932.17;;;1.53;91.15
60611;BME280;46439;51.164;13.572;2023-01-28T00:02:28;100935.66;;;1.51;90.90
60611;BME280;46439;51.164;13.572;2023-01-28T00:04:58;100931.59;;;1.54;90.82
60611;BME280;46439;51.164;13.572;2023-01-28T00:07:26;100933.17;;;1.51;90.96
60611;BME280;46439;51.164;13.572;2023-01-28T00:09:55;100928.52;;;1.52;90.95
60611;BME280;46439;51.164;13.572;2023-01-28T00:12:23;100937.84;;;1.53;91.06
60611;BME280;46439;51.164;13.572;2023-01-28T00:14:52;100935.23;;;1.49;90.93
60611;BME280;46439;51.164;13.572;2023-01-28T00:17:20;100933.13;;;1.49;90.72
60611;BME280;46439;51.164;13.572;2023-01-28T00:19:51;100934.23;;;1.49;90.64
60611;BME280;46439;51.164;13.572;2023-01-28T00:22:40;100936.41;;;1.45;90.75
60611;BME280;46439;51.164;13.572;2023-01-28T00:25:09;100935.23;;;1.44;90.54
60611;BME280;46439;51.164;13.572;2023-01-28T00:27:48;100936.04;;;1.51;90.70
60611;BME280;46439;51.164;13.572;2023-01-28T00:30:37;100940.84;;;1.53;90.96
60611;BME280;46439;51.164;13.572;2023-01-28T00:33:06;100941.09;;;1.55;90.96
60611;BME280;46439;51.164;13.572;2023-01-28T00:35:34;100940.64;;;1.62;90.94
60611;BME280;46439;51.164;13.572;2023-01-28T00:38:13;100938.58;;;1.72;91.42
60611;BME280;46439;51.164;13.572;2023-01-28T00:40:42;100940.89;;;1.75;91.15
60611;BME280;46439;51.164;13.572;2023-01-28T00:43:11;100940.33;;;1.70;91.15
60611;BME280;46439;51.164;13.572;2023-01-28T00:45:39;100940.51;;;1.64;90.91
60611;BME280;46439;51.164;13.572;2023-01-28T00:48:08;100941.48;;;1.66;90.97
60611;BME280;46439;51.164;13.572;2023-01-28T00:50:36;100942.06;;;1.68;91.03
60611;BME280;46439;51.164;13.572;2023-01-28T00:53:06;100944.58;;;1.73;91.05
60611;BME280;46439;51.164;13.572;2023-01-28T00:55:35;100941.42;;;1.84;91.41
60611;BME280;46439;51.164;13.572;2023-01-28T00:58:03;100942.02;;;1.94;91.71
60611;BME280;46439;51.164;13.572;2023-01-28T01:00:32;100942.66;;;1.98;91.68
60611;BME280;46439;51.164;13.572;2023-01-28T01:03:01;100945.84;;;1.95;91.81
60611;BME280;46439;51.164;13.572;2023-01-28T01:05:29;100944.91;;;1.93;91.44
60611;BME280;46439;51.164;13.572;2023-01-28T01:07:58;100946.11;;;1.85;91.61
60611;BME280;46439;51.164;13.572;2023-01-28T01:10:27;100944.95;;;1.76;91.18
60611;BME280;46439;51.164;13.572;2023-01-28T01:12:55;100947.27;;;1.70;90.98
60611;BME280;46439;51.164;13.572;2023-01-28T01:15:25;100950.42;;;1.70;90.87
60611;BME280;46439;51.164;13.572;2023-01-28T01:17:54;100954.23;;;1.72;91.00
60611;BME280;46439;51.164;13.572;2023-01-28T01:20:24;100955.23;;;1.79;90.91
60611;BME280;46439;51.164;13.572;2023-01-28T01:22:53;100954.56;;;1.89;91.57
60611;BME280;46439;51.164;13.572;2023-01-28T01:25:22;100951.86;;;1.95;91.80
60611;BME280;46439;51.164;13.572;2023-01-28T01:27:50;100954.86;;;2.04;92.09
60611;BME280;46439;51.164;13.572;2023-01-28T01:30:19;100957.05;;;2.11;92.08
60611;BME280;46439;51.164;13.572;2023-01-28T01:32:49;100960.35;;;2.04;91.85
60611;BME280;46439;51.164;13.572;2023-01-28T01:35:18;100957.20;;;2.01;91.53
60611;BME280;46439;51.164;13.572;2023-01-28T01:37:46;100953.98;;;2.04;91.80
60611;BME280;46439;51.164;13.572;2023-01-28T01:40:15;100956.67;;;2.11;91.79
60611;BME280;46439;51.164;13.572;2023-01-28T01:42:44;100951.91;;;2.14;92.29
60611;BME280;46439;51.164;13.572;2023-01-28T01:45:15;100954.61;;;2.19;92.14
60611;BME280;46439;51.164;13.572;2023-01-28T01:47:48;100952.92;;;2.23;92.15
60611;BME280;46439;51.164;13.572;2023-01-28T01:50:25;100951.35;;;2.20;91.75
60611;BME280;46439;51.164;13.572;2023-01-28T01:52:58;100948.44;;;2.13;91.96
60611;BME280;46439;51.164;13.572;2023-01-28T01:55:26;100954.11;;;2.10;91.94
60611;BME280;46439;51.164;13.572;2023-01-28T01:57:59;100949.38;;;2.06;91.69
60611;BME280;46439;51.164;13.572;2023-01-28T02:00:29;100953.42;;;2.01;91.67
60611;BME280;46439;51.164;13.572;2023-01-28T02:02:58;100953.31;;;1.98;91.42
60611;BME280;46439;51.164;13.572;2023-01-28T02:05:27;100951.16;;;1.89;91.30
60611;BME280;46439;51.164;13.572;2023-01-28T02:07:57;100952.36;;;1.82;91.34
60611;BME280;46439;51.164;13.572;2023-01-28T02:10:48;100947.01;;;1.68;90.93
60611;BME280;46439;51.164;13.572;2023-01-28T02:13:18;100952.28;;;1.61;90.72
60611;BME280;46439;51.164;13.572;2023-01-28T02:15:49;100949.95;;;1.58;90.73
60611;BME280;46439;51.164;13.572;2023-01-28T02:18:18;100950.61;;;1.62;90.82
60611;BME280;46439;51.164;13.572;2023-01-28T02:21:14;100951.58;;;1.63;90.99
60611;BME280;46439;51.164;13.572;2023-01-28T02:24:00;100947.77;;;1.64;90.80
60611;BME280;46439;51.164;13.572;2023-01-28T02:26:56;100952.42;;;1.58;91.11
60611;BME280;46439;51.164;13.572;2023-01-28T02:29:36;100957.52;;;1.53;90.64
60611;BME280;46439;51.164;13.572;2023-01-28T02:32:09;100960.23;;;1.47;90.71
60611;BME280;46439;51.164;13.572;2023-01-28T02:34:44;100965.13;;;1.45;90.34
60611;BME280;46439;51.164;13.572;2023-01-28T02:37:19;100966.80;;;1.41;90.75
60611;BME280;46439;51.164;13.572;2023-01-28T02:39:50;100963.73;;;1.39;90.65
60611;BME280;46439;51.164;13.572;2023-01-28T02:42:22;100963.61;;;1.38;90.83
60611;BME280;46439;51.164;13.572;2023-01-28T02:44:52;100965.79;;;1.46;90.59
60611;BME280;46439;51.164;13.572;2023-01-28T02:47:20;100964.27;;;1.56;91.13
60611;BME280;46439;51.164;13.572;2023-01-28T02:50:10;100966.85;;;1.58;91.07
60611;BME280;46439;51.164;13.572;2023-01-28T02:52:53;100967.10;;;1.50;90.94
60611;BME280;46439;51.164;13.572;2023-01-28T02:55:45;100970.73;;;1.41;90.58
60611;BME280;46439;51.164;13.572;2023-01-28T02:58:29;100973.71;;;1.35;90.65
60611;BME280;46439;51.164;13.572;2023-01-28T03:01:05;100976.70;;;1.30;90.80
60611;BME280;46439;51.164;13.572;2023-01-28T03:03:43;100976.92;;;1.26;90.70
60611;BME280;46439;51.164;13.572;2023-01-28T03:06:18;100972.53;;;1.14;90.63
60611;BME280;46439;51.164;13.572;2023-01-28T03:08:51;100972.17;;;0.96;90.09
60611;BME280;46439;51.164;13.572;2023-01-28T03:11:41;100980.32;;;0.82;89.97
60611;BME280;46439;51.164;13.572;2023-01-28T03:14:31;100984.46;;;0.77;89.98
60611;BME280;46439;51.164;13.572;2023-01-28T03:17:22;100983.69;;;0.63;89.81
60611;BME280;46439;51.164;13.572;2023-01-28T03:20:13;100985.45;;;0.61;89.62
60611;BME280;46439;51.164;13.572;2023-01-28T03:23:06;100986.65;;;0.55;89.80
60611;BME280;46439;51.164;13.572;2023-01-28T03:25:59;100986.11;;;0.52;89.79
60611;BME280;46439;51.164;13.572;2023-01-28T03:28:48;100988.63;;;0.54;89.90
60611;BME280;46439;51.164;13.572;2023-01-28T03:31:37;100991.42;;;0.58;89.72
60611;BME280;46439;51.164;13.572;2023-01-28T03:34:24;100990.29;;;0.60;90.31
60611;BME280;46439;51.164;13.572;2023-01-28T03:37:12;100997.60;;;0.49;90.19
60611;BME280;46439;51.164;13.572;2023-01-28T03:39:42;100999.11;;;0.42;89.95
60611;BME280;46439;51.164;13.572;2023-01-28T03:42:12;101003.31;;;0.33;89.76
60611;BME280;46439;51.164;13.572;2023-01-28T03:44:41;100998.98;;;0.22;89.71
60611;BME280;46439;51.164;13.572;2023-01-28T03:47:23;101001.57;;;0.13;89.69
60611;BME280;46439;51.164;13.572;2023-01-28T03:49:53;100999.41;;;0.08;89.39
60611;BME280;46439;51.164;13.572;2023-01-28T03:52:24;101001.62;;;-0.00;89.53
60611;BME280;46439;51.164;13.572;2023-01-28T03:54:52;101002.67;;;-0.06;89.27
60611;BME280;46439;51.164;13.572;2023-01-28T03:57:22;101010.13;;;-0.10;89.15
60611;BME280;46439;51.164;13.572;2023-01-28T03:59:52;101010.35;;;-0.14;89.45
60611;BME280;46439;51.164;13.572;2023-01-28T04:02:21;101014.98;;;-0.18;89.19
60611;BME280;46439;51.164;13.572;2023-01-28T04:04:50;101020.56;;;-0.16;89.27
60611;BME280;46439;51.164;13.572;2023-01-28T04:07:18;101026.77;;;-0.10;89.39
60611;BME280;46439;51.164;13.572;2023-01-28T04:09:47;101027.52;;;-0.11;89.86
60611;BME280;46439;51.164;13.572;2023-01-28T04:12:15;101030.94;;;-0.15;89.57
60611;BME280;46439;51.164;13.572;2023-01-28T04:14:44;101031.89;;;-0.17;89.56
60611;BME280;46439;51.164;13.572;2023-01-28T04:17:12;101031.32;;;-0.26;89.36
60611;BME280;46439;51.164;13.572;2023-01-28T04:19:40;101029.52;;;-0.32;89.41
60611;BME280;46439;51.164;13.572;2023-01-28T04:22:11;101030.36;;;-0.34;89.18
60611;BME280;46439;51.164;13.572;2023-01-28T04:24:39;101029.93;;;-0.43;89.16
60611;BME280;46439;51.164;13.572;2023-01-28T04:27:08;101030.84;;;-0.50;89.08
60611;BME280;46439;51.164;13.572;2023-01-28T04:29:36;101031.87;;;-0.56;89.14
60611;BME280;46439;51.164;13.572;2023-01-28T04:32:05;101029.34;;;-0.59;89.14
60611;BME280;46439;51.164;13.572;2023-01-28T04:34:34;101033.49;;;-0.61;89.03
60611;BME280;46439;51.164;13.572;2023-01-28T04:37:02;101033.77;;;-0.69;89.00
60611;BME280;46439;51.164;13.572;2023-01-28T04:39:31;101034.67;;;-0.72;88.94
60611;BME280;46439;51.164;13.572;2023-01-28T04:41:59;101035.20;;;-0.73;88.98
60611;BME280;46439;51.164;13.572;2023-01-28T04:44:27;101036.38;;;-0.71;89.12
60611;BME280;46439;51.164;13.572;2023-01-28T04:46:56;101037.42;;;-0.68;89.15
60611;BME280;46439;51.164;13.572;2023-01-28T04:49:25;101041.14;;;-0.64;89.29
60611;BME280;46439;51.164;13.572;2023-01-28T04:51:53;101036.48;;;-0.56;89.46
60611;BME280;46439;51.164;13.572;2023-01-28T04:54:21;101041.80;;;-0.50;89.61
60611;BME280;46439;51.164;13.572;2023-01-28T04:56:50;101041.44;;;-0.49;89.61
60611;BME280;46439;51.164;13.572;2023-01-28T04:59:18;101049.52;;;-0.46;89.55
60611;BME280;46439;51.164;13.572;2023-01-28T05:01:47;101050.94;;;-0.48;89.62
60611;BME280;46439;51.164;13.572;2023-01-28T05:04:16;101053.05;;;-0.48;89.72
60611;BME280;46439;51.164;13.572;2023-01-28T05:06:44;101055.33;;;-0.48;89.64
60611;BME280;46439;51.164;13.572;2023-01-28T05:09:12;101062.50;;;-0.50;89.44
60611;BME280;46439;51.164;13.572;2023-01-28T05:11:41;101063.64;;;-0.52;89.43
60611;BME280;46439;51.164;13.572;2023-01-28T05:14:10;101065.04;;;-0.48;89.57
60611;BME280;46439;51.164;13.572;2023-01-28T05:16:38;101063.35;;;-0.43;89.50
60611;BME280;46439;51.164;13.572;2023-01-28T05:19:07;101059.91;;;-0.38;89.72
60611;BME280;46439;51.164;13.572;2023-01-28T05:21:35;101065.86;;;-0.27;89.79
60611;BME280;46439;51.164;13.572;2023-01-28T05:24:05;101069.50;;;-0.12;90.11
60611;BME280;46439;51.164;13.572;2023-01-28T05:26:34;101070.30;;;-0.11;90.34
60611;BME280;46439;51.164;13.572;2023-01-28T05:29:02;101072.92;;;-0.23;90.03
60611;BME280;46439;51.164;13.572;2023-01-28T05:31:31;101073.58;;;-0.32;89.63
60611;BME280;46439;51.164;13.572;2023-01-28T05:34:00;101074.88;;;-0.30;89.62
60611;BME280;46439;51.164;13.572;2023-01-28T05:36:28;101077.22;;;-0.24;90.00
60611;BME280;46439;51.164;13.572;2023-01-28T05:38:57;101086.80;;;-0.18;90.23
60611;BME280;46439;51.164;13.572;2023-01-28T05:41:25;101092.41;;;-0.16;90.20
60611;BME280;46439;51.164;13.572;2023-01-28T05:43:54;101091.80;;;-0.15;89.98
60611;BME280;46439;51.164;13.572;2023-01-28T05:46:23;101094.67;;;-0.16;89.97
60611;BME280;46439;51.164;13.572;2023-01-28T05:48:52;101103.05;;;-0.10;90.16
60611;BME280;46439;51.164;13.572;2023-01-28T05:51:21;101100.27;;;-0.08;90.33
60611;BME280;46439;51.164;13.572;2023-01-28T05:53:49;101102.73;;;-0.08;90.30
60611;BME280;46439;51.164;13.572;2023-01-28T05:56:18;101108.83;;;-0.09;90.02
60611;BME280;46439;51.164;13.572;2023-01-28T05:58:46;101112.89;;;-0.06;90.33
60611;BME280;46439;51.164;13.572;2023-01-28T06:01:14;101115.88;;;-0.09;90.09
60611;BME280;46439;51.164;13.572;2023-01-28T06:03:43;101115.95;;;-0.10;90.02
60611;BME280;46439;51.164;13.572;2023-01-28T06:06:12;101118.13;;;-0.04;89.92
60611;BME280;46439;51.164;13.572;2023-01-28T06:08:41;101124.58;;;-0.03;90.19
60611;BME280;46439;51.164;13.572;2023-01-28T06:11:09;101128.15;;;-0.13;90.01
60611;BME280;46439;51.164;13.572;2023-01-28T06:13:37;101129.58;;;-0.34;89.61
60611;BME280;46439;51.164;13.572;2023-01-28T06:16:09;101129.48;;;-0.50;89.37
60611;BME280;46439;51.164;13.572;2023-01-28T06:18:37;101132.44;;;-0.55;89.12
60611;BME280;46439;51.164;13.572;2023-01-28T06:21:06;101142.68;;;-0.69;89.26
60611;BME280;46439;51.164;13.572;2023-01-28T06:23:34;101145.62;;;-0.82;88.89
60611;BME280;46439;51.164;13.572;2023-01-28T06:26:03;101149.08;;;-0.87;88.94
60611;BME280;46439;51.164;13.572;2023-01-28T06:28:31;101150.19;;;-0.92;88.96
60611;BME280;46439;51.164;13.572;2023-01-28T06:31:00;101153.82;;;-0.98;88.76
60611;BME280;46439;51.164;13.572;2023-01-28T06:33:28;101152.25;;;-1.02;88.81
60611;BME280;46439;51.164;13.572;2023-01-28T06:35:57;101152.94;;;-1.01;88.83
60611;BME280;46439;51.164;13.572;2023-01-28T06:38:25;101157.25;;;-1.03;88.80
60611;BME280;46439;51.164;13.572;2023-01-28T06:40:54;101161.33;;;-1.03;88.90
60611;BME280;46439;51.164;13.572;2023-01-28T06:43:23;101164.90;;;-1.04;88.92
60611;BME280;46439;51.164;13.572;2023-01-28T06:45:53;101166.29;;;-1.04;89.06
60611;BME280;46439;51.164;13.572;2023-01-28T06:48:22;101167.59;;;-1.05;89.20
60611;BME280;46439;51.164;13.572;2023-01-28T06:50:52;101169.39;;;-1.09;88.97
60611;BME280;46439;51.164;13.572;2023-01-28T06:53:24;101172.76;;;-1.09;89.04
60611;BME280;46439;51.164;13.572;2023-01-28T06:55:57;101175.38;;;-1.02;89.11
60611;BME280;46439;51.164;13.572;2023-01-28T06:58:39;101178.47;;;-0.92;89.30
60611;BME280;46439;51.164;13.572;2023-01-28T07:01:09;101174.24;;;-0.78;89.60
60611;BME280;46439;51.164;13.572;2023-01-28T07:03:50;101180.09;;;-0.68;89.70
60611;BME280;46439;51.164;13.572;2023-01-28T07:06:19;101183.91;;;-0.63;89.83
60611;BME280;46439;51.164;13.572;2023-01-28T07:08:48;101183.77;;;-0.53;90.14
60611;BME280;46439;51.164;13.572;2023-01-28T07:11:17;101188.92;;;-0.47;90.18
60611;BME280;46439;51.164;13.572;2023-01-28T07:13:45;101190.14;;;-0.46;90.24
60611;BME280;46439;51.164;13.572;2023-01-28T07:16:14;101186.83;;;-0.47;90.05
60611;BME280;46439;51.164;13.572;2023-01-28T07:18:43;101191.14;;;-0.48;90.17
60611;BME280;46439;51.164;13.572;2023-01-28T07:21:11;101192.17;;;-0.51;89.96
60611;BME280;46439;51.164;13.572;2023-01-28T07:23:40;101195.23;;;-0.52;89.77
60611;BME280;46439;51.164;13.572;2023-01-28T07:26:08;101198.41;;;-0.52;89.75
60611;BME280;46439;51.164;13.572;2023-01-28T07:28:37;101197.67;;;-0.48;89.81
60611;BME280;46439;51.164;13.572;2023-01-28T07:31:05;101196.25;;;-0.41;89.81
60611;BME280;46439;51.164;13.572;2023-01-28T07:33:34;101190.88;;;-0.43;89.94
60611;BME280;46439;51.164;13.572;2023-01-28T07:36:03;101192.41;;;-0.38;89.93
60611;BME280;46439;51.164;13.572;2023-01-28T07:38:31;101191.20;;;-0.28;90.04
60611;BME280;46439;51.164;13.572;2023-01-28T07:41:00;101196.58;;;-0.26;90.11
60611;BME280;46439;51.164;13.572;2023-01-28T07:43:28;101198.30;;;-0.29;89.91
60611;BME280;46439;51.164;13.572;2023-01-28T07:46:00;101196.02;;;-0.23;90.03
60611;BME280;46439;51.164;13.572;2023-01-28T07:48:27;101197.00;;;-0.24;90.12
60611;BME280;46439;51.164;13.572;2023-01-28T07:50:58;101194.67;;;-0.20;90.24
60611;BME280;46439;51.164;13.572;2023-01-28T07:53:27;101197.97;;;-0.12;90.21
60611;BME280;46439;51.164;13.572;2023-01-28T07:56:00;101196.47;;;-0.14;90.28
60611;BME280;46439;51.164;13.572;2023-01-28T07:58:29;101196.47;;;-0.04;90.46
60611;BME280;46439;51.164;13.572;2023-01-28T08:00:58;101193.40;;;0.11;90.65
60611;BME280;46439;51.164;13.572;2023-01-28T08:03:27;101192.16;;;0.25;90.92
60611;BME280;46439;51.164;13.572;2023-01-28T08:05:56;101188.94;;;0.28;90.94
60611;BME280;46439;51.164;13.572;2023-01-28T08:08:26;101192.14;;;0.32;91.18
60611;BME280;46439;51.164;13.572;2023-01-28T08:10:55;101191.73;;;0.39;91.16
60611;BME280;46439;51.164;13.572;2023-01-28T08:13:24;101192.77;;;0.46;91.14
60611;BME280;46439;51.164;13.572;2023-01-28T08:15:55;101196.03;;;0.54;91.38
60611;BME280;46439;51.164;13.572;2023-01-28T08:18:24;101201.68;;;0.62;91.28
60611;BME280;46439;51.164;13.572;2023-01-28T08:20:55;101201.41;;;0.70;91.65
60611;BME280;46439;51.164;13.572;2023-01-28T08:23:23;101200.38;;;0.72;91.44
60611;BME280;46439;51.164;13.572;2023-01-28T08:25:56;101200.52;;;0.76;91.45
60611;BME280;46439;51.164;13.572;2023-01-28T08:28:25;101198.45;;;0.75;91.38
60611;BME280;46439;51.164;13.572;2023-01-28T08:30:54;101201.94;;;0.80;91.29
60611;BME280;46439;51.164;13.572;2023-01-28T08:33:22;101207.23;;;0.80;91.31
60611;BME280;46439;51.164;13.572;2023-01-28T08:35:51;101206.83;;;0.74;91.48
60611;BME280;46439;51.164;13.572;2023-01-28T08:38:19;101208.76;;;0.71;90.93
60611;BME280;46439;51.164;13.572;2023-01-28T08:40:48;101209.55;;;0.73;91.01
60611;BME280;46439;51.164;13.572;2023-01-28T08:43:17;101216.11;;;0.86;91.05
60611;BME280;46439;51.164;13.572;2023-01-28T08:45:46;101214.77;;;1.00;91.14
60611;BME280;46439;51.164;13.572;2023-01-28T08:48:16;101216.57;;;1.09;91.91
60611;BME280;46439;51.164;13.572;2023-01-28T08:50:45;101217.85;;;1.09;91.66
60611;BME280;46439;51.164;13.572;2023-01-28T08:53:15;101220.95;;;1.17;91.56
60611;BME280;46439;51.164;13.572;2023-01-28T08:55:45;101220.27;;;1.25;92.08
60611;BME280;46439;51.164;13.572;2023-01-28T08:58:15;101223.30;;;1.31;91.86
60611;BME280;46439;51.164;13.572;2023-01-28T09:00:45;101227.16;;;1.35;91.66
60611;BME280;46439;51.164;13.572;2023-01-28T09:03:14;101227.53;;;1.41;91.99
60611;BME280;46439;51.164;13.572;2023-01-28T09:05:43;101229.18;;;1.43;91.87
60611;BME280;46439;51.164;13.572;2023-01-28T09:08:13;101233.95;;;1.44;91.77
60611;BME280;46439;51.164;13.572;2023-01-28T09:10:42;101238.11;;;1.36;91.82
60611;BME280;46439;51.164;13.572;2023-01-28T09:13:13;101236.41;;;1.25;91.42
60611;BME280;46439;51.164;13.572;2023-01-28T09:15:50;101234.98;;;1.16;91.15
60611;BME280;46439;51.164;13.572;2023-01-28T09:18:34;101236.13;;;1.02;90.80
60611;BME280;46439;51.164;13.572;2023-01-28T09:21:07;101240.52;;;0.96;90.40
60611;BME280;46439;51.164;13.572;2023-01-28T09:23:36;101241.84;;;1.02;90.62
60611;BME280;46439;51.164;13.572;2023-01-28T09:26:06;101242.36;;;1.08;90.70
60611;BME280;46439;51.164;13.572;2023-01-28T09:28:36;101245.33;;;1.19;90.75
60611;BME280;46439;51.164;13.572;2023-01-28T09:31:07;101244.94;;;1.22;90.92
60611;BME280;46439;51.164;13.572;2023-01-28T09:33:37;101245.33;;;1.21;91.04
60611;BME280;46439;51.164;13.572;2023-01-28T09:36:09;101245.75;;;1.26;91.01
60611;BME280;46439;51.164;13.572;2023-01-28T09:38:38;101245.84;;;1.25;90.88
60611;BME280;46439;51.164;13.572;2023-01-28T09:41:21;101243.96;;;1.14;91.03
60611;BME280;46439;51.164;13.572;2023-01-28T09:44:06;101248.71;;;1.08;90.49
60611;BME280;46439;51.164;13.572;2023-01-28T09:46:43;101245.07;;;1.07;90.70
60611;BME280;46439;51.164;13.572;2023-01-28T09:49:18;101245.66;;;1.06;90.65
60611;BME280;46439;51.164;13.572;2023-01-28T09:51:50;101250.14;;;1.05;90.35
60611;BME280;46439;51.164;13.572;2023-01-28T09:54:25;101249.81;;;1.02;90.44
60611;BME280;46439;51.164;13.572;2023-01-28T09:57:01;101245.43;;;0.98;90.73
60611;BME280;46439;51.164;13.572;2023-01-28T09:59:34;101246.05;;;0.86;90.28
60611;BME280;46439;51.164;13.572;2023-01-28T10:02:29;101246.29;;;0.82;90.22
60611;BME280;46439;51.164;13.572;2023-01-28T10:05:10;101249.57;;;0.70;89.89
60611;BME280;46439;51.164;13.572;2023-01-28T10:07:50;101256.53;;;0.59;89.72
60611;BME280;46439;51.164;13.572;2023-01-28T10:10:27;101257.57;;;0.53;89.58
60611;BME280;46439;51.164;13.572;2023-01-28T10:13:25;101259.23;;;0.49;89.50
60611;BME280;46439;51.164;13.572;2023-01-28T10:16:07;101260.91;;;0.47;89.63
60611;BME280;46439;51.164;13.572;2023-01-28T10:18:43;101256.84;;;0.47;89.82
60611;BME280;46439;51.164;13.572;2023-01-28T10:21:19;101263.11;;;0.46;89.90
60611;BME280;46439;51.164;13.572;2023-01-28T10:23:58;101267.89;;;0.43;89.55
60611;BME280;46439;51.164;13.572;2023-01-28T10:26:32;101266.97;;;0.40;89.66
60611;BME280;46439;51.164;13.572;2023-01-28T10:29:12;101270.42;;;0.28;89.70
60611;BME280;46439;51.164;13.572;2023-01-28T10:31:45;101278.11;;;0.19;89.05
60611;BME280;46439;51.164;13.572;2023-01-28T10:34:18;101281.19;;;0.18;89.30
60611;BME280;46439;51.164;13.572;2023-01-28T10:36:46;101280.23;;;0.16;89.23
60611;BME280;46439;51.164;13.572;2023-01-28T10:39:17;101277.70;;;0.10;89.30
60611;BME280;46439;51.164;13.572;2023-01-28T10:41:47;101280.40;;;0.02;89.06
60611;BME280;46439;51.164;13.572;2023-01-28T10:44:17;101284.77;;;0.00;89.03
60611;BME280;46439;51.164;13.572;2023-01-28T10:46:50;101282.48;;;0.10;89.22
60611;BME280;46439;51.164;13.572;2023-01-28T10:49:22;101283.91;;;0.20;89.47
60611;BME280;46439;51.164;13.572;2023-01-28T10:51:53;101289.23;;;0.27;89.92
60611;BME280;46439;51.164;13.572;2023-01-28T10:54:25;101286.81;;;0.26;90.03
60611;BME280;46439;51.164;13.572;2023-01-28T10:56:53;101290.36;;;0.23;89.90
60611;BME280;46439;51.164;13.572;2023-01-28T10:59:27;101287.36;;;0.22;89.72
60611;BME280;46439;51.164;13.572;2023-01-28T11:01:58;101287.70;;;0.15;89.63
60611;BME280;46439;51.164;13.572;2023-01-28T11:04:29;101293.71;;;0.12;89.71
60611;BME280;46439;51.164;13.572;2023-01-28T11:07:00;101285.20;;;0.06;89.27
60611;BME280;46439;51.164;13.572;2023-01-28T11:09:31;101278.30;;;0.02;89.40
60611;BME280;46439;51.164;13.572;2023-01-28T11:12:11;101282.73;;;0.06;89.37
60611;BME280;46439;51.164;13.572;2023-01-28T11:14:50;101284.23;;;0.11;89.34
60611;BME280;46439;51.164;13.572;2023-01-28T11:17:20;101283.29;;;0.08;89.45
60611;BME280;46439;51.164;13.572;2023-01-28T11:19:52;101277.39;;;0.03;89.31
60611;BME280;46439;51.164;13.572;2023-01-28T11:22:26;101280.38;;;0.03;89.47
60611;BME280;46439;51.164;13.572;2023-01-28T11:24:57;101280.03;;;0.03;89.41
60611;BME280;46439;51.164;13.572;2023-01-28T11:27:28;101280.97;;;0.09;89.46
60611;BME280;46439;51.164;13.572;2023-01-28T11:29:59;101280.73;;;0.10;89.58
60611;BME280;46439;51.164;13.572;2023-01-28T11:32:32;101278.61;;;0.13;89.58
60611;BME280;46439;51.164;13.572;2023-01-28T11:35:00;101276.29;;;0.17;89.65
60611;BME280;46439;51.164;13.572;2023-01-28T11:37:29;101270.66;;;0.20;89.80
60611;BME280;46439;51.164;13.572;2023-01-28T11:40:16;101260.73;;;0.27;90.01
60611;BME280;46439;51.164;13.572;2023-01-28T11:42:47;101260.05;;;0.37;89.86
60611;BME280;46439;51.164;13.572;2023-01-28T11:45:19;101256.44;;;0.41;89.84
60611;BME280;46439;51.164;13.572;2023-01-28T11:47:59;101250.20;;;0.45;90.11
60611;BME280;46439;51.164;13.572;2023-01-28T11:50:41;101252.85;;;0.42;89.83
60611;BME280;46439;51.164;13.572;2023-01-28T11:56:34;101250.30;;;0.40;89.55
60611;BME280;46439;51.164;13.572;2023-01-28T11:59:30;101250.91;;;0.45;89.77
60611;BME280;46439;51.164;13.572;2023-01-28T12:02:08;101259.14;;;0.47;89.92
60611;BME280;46439;51.164;13.572;2023-01-28T12:04:57;101255.05;;;0.54;90.02
60611;BME280;46439;51.164;13.572;2023-01-28T12:07:36;101253.05;;;0.55;90.21
60611;BME280;46439;51.164;13.572;2023-01-28T12:10:17;101247.38;;;0.48;89.91
60611;BME280;46439;51.164;13.572;2023-01-28T12:13:10;101238.68;;;0.52;89.92
60611;BME280;46439;51.164;13.572;2023-01-28T12:16:01;101243.26;;;0.60;89.59
60611;BME280;46439;51.164;13.572;2023-01-28T12:18:44;101248.44;;;0.55;89.78
60611;BME280;46439;51.164;13.572;2023-01-28T12:21:28;101240.39;;;0.53;89.86
60611;BME280;46439;51.164;13.572;2023-01-28T12:24:18;101244.00;;;0.55;89.88
60611;BME280;46439;51.164;13.572;2023-01-28T12:26:54;101235.73;;;0.61;89.72
60611;BME280;46439;51.164;13.572;2023-01-28T12:29:33;101233.28;;;0.67;90.05
60611;BME280;46439;51.164;13.572;2023-01-28T12:32:15;101235.64;;;0.63;90.12
60611;BME280;46439;51.164;13.572;2023-01-28T12:37:57;101231.67;;;0.44;89.46
60611;BME280;46439;51.164;13.572;2023-01-28T12:40:51;101224.74;;;0.48;89.37
60611;BME280;46439;51.164;13.572;2023-01-28T12:43:25;101222.98;;;0.57;89.42
60611;BME280;46439;51.164;13.572;2023-01-28T12:46:04;101227.89;;;0.65;89.97
60611;BME280;46439;51.164;13.572;2023-01-28T12:48:39;101225.61;;;0.68;90.06
60611;BME280;46439;51.164;13.572;2023-01-28T12:51:13;101226.24;;;0.69;89.81
60611;BME280;46439;51.164;13.572;2023-01-28T12:53:48;101224.17;;;0.58;89.70
60611;BME280;46439;51.164;13.572;2023-01-28T12:56:24;101226.45;;;0.49;89.20
60611;BME280;46439;51.164;13.572;2023-01-28T12:59:07;101229.81;;;0.46;89.07
60611;BME280;46439;51.164;13.572;2023-01-28T13:01:43;101228.30;;;0.47;89.42
60611;BME280;46439;51.164;13.572;2023-01-28T13:04:21;101224.95;;;0.47;89.03
60611;BME280;46439;51.164;13.572;2023-01-28T13:06:55;101225.48;;;0.47;89.65
60611;BME280;46439;51.164;13.572;2023-01-28T13:09:26;101224.77;;;0.54;89.51
60611;BME280;46439;51.164;13.572;2023-01-28T13:11:57;101226.59;;;0.63;89.61
60611;BME280;46439;51.164;13.572;2023-01-28T13:14:29;101230.15;;;0.69;89.98
60611;BME280;46439;51.164;13.572;2023-01-28T13:17:09;101227.59;;;0.73;90.17
60611;BME280;46439;51.164;13.572;2023-01-28T13:19:40;101230.71;;;0.78;90.04
60611;BME280;46439;51.164;13.572;2023-01-28T13:22:23;101231.46;;;0.84;90.13